createdAt,value
2018-08-12T00:00:26.796Z,1.40
2018-08-12T00:02:59.697Z,1.30
2018-08-12T00:05:31.509Z,1.70
2018-08-12T00:08:03.385Z,1.83
2018-08-12T00:10:35.431Z,1.90
2018-08-12T00:13:07.452Z,1.80
2018-08-12T00:15:39.301Z,1.90
2018-08-12T00:18:11.089Z,1.43
2018-08-12T00:20:42.887Z,1.63
2018-08-12T00:23:14.880Z,1.40
2018-08-12T00:25:46.837Z,1.37
2018-08-12T00:28:18.756Z,1.20
2018-08-12T00:30:50.716Z,1.30
2018-08-12T00:33:22.408Z,1.60
2018-08-12T00:35:54.237Z,1.20
2018-08-12T00:38:25.922Z,1.27
2018-08-12T00:40:57.661Z,1.10
2018-08-12T00:43:29.437Z,0.93
2018-08-12T00:46:01.380Z,1.40
2018-08-12T00:48:33.488Z,1.40
2018-08-12T00:51:05.322Z,1.10
2018-08-12T00:53:37.193Z,1.30
2018-08-12T00:56:09.137Z,1.30
2018-08-12T00:58:41.129Z,1.20
2018-08-12T01:01:13.105Z,1.00
2018-08-12T01:03:44.846Z,1.27
2018-08-12T01:06:16.651Z,1.37
2018-08-12T01:08:48.525Z,1.33
2018-08-12T01:11:20.230Z,1.30
2018-08-12T01:13:51.992Z,1.30
2018-08-12T01:16:23.810Z,1.33
2018-08-12T01:18:55.681Z,0.90
2018-08-12T01:21:27.606Z,1.20
2018-08-12T01:23:59.542Z,1.50
2018-08-12T01:26:31.615Z,1.03
2018-08-12T01:29:03.442Z,1.83
2018-08-12T01:31:35.340Z,1.43
2018-08-12T01:34:07.173Z,1.53
2018-08-12T01:36:39.119Z,1.40
2018-08-12T01:39:11.770Z,1.50
2018-08-12T01:41:43.645Z,1.43
2018-08-12T01:44:15.341Z,1.30
2018-08-12T01:46:47.194Z,1.40
2018-08-12T01:49:19.060Z,1.50
2018-08-12T01:51:50.946Z,1.30
2018-08-12T01:54:22.674Z,1.10
2018-08-12T01:56:54.336Z,1.20
2018-08-12T01:59:26.276Z,1.37
2018-08-12T02:01:58.134Z,1.50
2018-08-12T02:04:29.933Z,1.30
2018-08-12T02:07:01.786Z,1.30
2018-08-12T02:09:33.642Z,1.30
2018-08-12T02:12:05.583Z,1.30
2018-08-12T02:14:37.601Z,1.20
2018-08-12T02:17:09.491Z,1.20
2018-08-12T02:19:41.182Z,1.47
2018-08-12T02:22:13.028Z,1.10
2018-08-12T02:24:44.900Z,1.40
2018-08-12T02:27:16.701Z,1.33
2018-08-12T02:29:48.534Z,1.17
2018-08-12T02:32:20.268Z,1.60
2018-08-12T02:34:51.973Z,1.50
2018-08-12T02:37:23.705Z,1.37
2018-08-12T02:39:55.594Z,1.30
2018-08-12T02:42:27.353Z,1.30
2018-08-12T02:44:58.981Z,1.30
2018-08-12T02:47:30.929Z,1.50
2018-08-12T02:50:02.841Z,1.53
2018-08-12T02:52:34.581Z,1.20
2018-08-12T02:55:06.982Z,1.50
2018-08-12T02:57:38.929Z,1.27
2018-08-12T03:00:12.373Z,1.60
2018-08-12T03:02:44.140Z,1.30
2018-08-12T03:05:15.828Z,1.50
2018-08-12T03:07:47.662Z,0.90
2018-08-12T03:10:19.567Z,1.30
2018-08-12T03:12:51.338Z,1.27
2018-08-12T03:15:23.061Z,1.30
2018-08-12T03:17:54.992Z,1.60
2018-08-12T03:20:26.806Z,1.30
2018-08-12T03:22:58.716Z,1.50
2018-08-12T03:25:30.556Z,1.30
2018-08-12T03:28:02.469Z,1.30
2018-08-12T03:30:34.310Z,1.20
2018-08-12T03:33:06.272Z,1.40
2018-08-12T03:35:37.982Z,1.60
2018-08-12T03:38:09.722Z,1.30
2018-08-12T03:40:41.596Z,1.70
2018-08-12T03:43:13.317Z,1.20
2018-08-12T03:45:45.094Z,1.40
2018-08-12T03:48:16.923Z,1.33
2018-08-12T03:50:48.792Z,1.23
2018-08-12T03:53:20.803Z,1.27
2018-08-12T03:55:52.628Z,1.40
2018-08-12T03:58:24.491Z,1.50
2018-08-12T04:00:56.439Z,1.50
2018-08-12T04:03:28.403Z,1.50
2018-08-12T04:06:00.217Z,1.20
2018-08-12T04:08:31.943Z,1.10
2018-08-12T04:11:03.889Z,1.30
2018-08-12T04:13:35.696Z,1.83
2018-08-12T04:16:07.465Z,1.90
2018-08-12T04:18:39.237Z,1.50
2018-08-12T04:21:11.017Z,1.47
2018-08-12T04:23:42.755Z,1.47
2018-08-12T04:26:14.739Z,1.40
2018-08-12T04:28:46.658Z,1.50
2018-08-12T04:31:18.388Z,1.60
2018-08-12T04:33:50.140Z,1.60
2018-08-12T04:36:22.009Z,1.70
2018-08-12T04:38:53.650Z,1.40
2018-08-12T04:41:25.682Z,1.57
2018-08-12T04:43:57.572Z,1.70
2018-08-12T04:46:29.536Z,1.90
2018-08-12T04:49:01.109Z,1.60
2018-08-12T04:51:32.953Z,1.93
2018-08-12T04:54:04.870Z,1.30
2018-08-12T04:56:36.689Z,1.30
2018-08-12T04:59:08.548Z,1.30
2018-08-12T05:01:40.497Z,1.70
2018-08-12T05:04:12.289Z,1.73
2018-08-12T05:06:43.946Z,1.80
2018-08-12T05:09:15.864Z,1.93
2018-08-12T05:11:47.643Z,1.63
2018-08-12T05:14:19.457Z,1.70
2018-08-12T05:16:51.448Z,1.50
2018-08-12T05:19:23.125Z,1.67
2018-08-12T05:21:55.005Z,1.70
2018-08-12T05:24:26.751Z,1.57
2018-08-12T05:26:58.745Z,1.60
2018-08-12T05:29:30.554Z,1.30
2018-08-12T05:32:02.509Z,1.30
2018-08-12T05:34:34.317Z,1.20
2018-08-12T05:37:06.094Z,1.10
2018-08-12T05:39:37.789Z,1.50
2018-08-12T05:42:09.633Z,1.30
2018-08-12T05:44:41.445Z,1.40
2018-08-12T05:47:13.386Z,1.30
2018-08-12T05:49:45.291Z,1.60
2018-08-12T05:52:17.052Z,1.30
2018-08-12T05:54:48.733Z,1.20
2018-08-12T05:57:20.568Z,1.17
2018-08-12T05:59:52.297Z,1.47
2018-08-12T06:02:24.189Z,0.90
2018-08-12T06:04:55.970Z,1.40
2018-08-12T06:07:27.606Z,1.07
2018-08-12T06:09:59.370Z,1.00
2018-08-12T06:12:31.103Z,1.30
2018-08-12T06:15:02.983Z,0.90
2018-08-12T06:17:34.715Z,0.80
2018-08-12T06:20:08.167Z,1.07
2018-08-12T06:22:40.157Z,1.17
2018-08-12T06:25:12.872Z,1.10
2018-08-12T06:27:44.725Z,0.80
2018-08-12T06:30:16.893Z,0.80
2018-08-12T06:32:48.674Z,0.90
2018-08-12T06:35:20.421Z,0.60
2018-08-12T06:37:52.276Z,0.80
2018-08-12T06:40:24.210Z,0.60
2018-08-12T06:42:56.222Z,0.70
2018-08-12T06:45:27.876Z,0.73
2018-08-12T06:47:59.722Z,0.87
2018-08-12T06:50:31.707Z,0.77
2018-08-12T06:53:03.565Z,0.40
2018-08-12T06:55:35.395Z,0.60
2018-08-12T06:58:07.339Z,0.90
2018-08-12T07:00:39.317Z,0.60
2018-08-12T07:03:10.970Z,1.00
2018-08-12T07:05:42.755Z,0.60
2018-08-12T07:08:14.581Z,0.67
2018-08-12T07:10:46.459Z,0.90
2018-08-12T07:13:18.257Z,0.77
2018-08-12T07:15:50.166Z,0.60
2018-08-12T07:18:22.021Z,0.50
2018-08-12T07:20:53.821Z,0.50
2018-08-12T07:23:25.849Z,0.40
2018-08-12T07:25:57.818Z,0.40
2018-08-12T07:28:29.822Z,0.37
2018-08-12T07:31:01.692Z,0.40
2018-08-12T07:33:33.534Z,0.50
2018-08-12T07:36:06.155Z,0.70
2018-08-12T07:38:38.016Z,0.50
2018-08-12T07:41:09.998Z,0.87
2018-08-12T07:43:42.840Z,0.80
2018-08-12T07:46:14.581Z,0.60
2018-08-12T07:48:46.566Z,0.57
2018-08-12T07:51:18.377Z,0.73
2018-08-12T07:53:50.182Z,0.50
2018-08-12T07:56:22.026Z,0.53
2018-08-12T07:58:53.957Z,0.57
2018-08-12T08:01:25.766Z,0.30
2018-08-12T08:03:57.519Z,0.57
2018-08-12T08:06:29.332Z,0.40
2018-08-12T08:09:00.869Z,0.50
2018-08-12T08:11:32.769Z,0.40
2018-08-12T08:14:11.802Z,0.35
2018-08-12T08:20:29.797Z,0.60
2018-08-12T08:23:25.007Z,0.70
2018-08-12T08:26:16.950Z,0.80
2018-08-12T08:28:56.585Z,0.90
2018-08-12T08:31:30.679Z,0.70
2018-08-12T08:34:02.385Z,0.50
2018-08-12T08:36:34.214Z,0.53
2018-08-12T08:39:12.698Z,0.30
2018-08-12T08:41:46.044Z,0.60
2018-08-12T08:44:18.034Z,0.60
2018-08-12T08:46:49.901Z,0.60
2018-08-12T08:49:21.659Z,0.70
2018-08-12T08:51:53.454Z,0.70
2018-08-12T08:54:25.246Z,0.50
2018-08-12T08:56:57.065Z,0.60
2018-08-12T08:59:28.813Z,0.50
2018-08-12T09:02:00.783Z,0.80
2018-08-12T09:04:32.774Z,0.90
2018-08-12T09:07:04.586Z,0.60
2018-08-12T09:09:36.470Z,0.50
2018-08-12T09:12:08.513Z,0.63
2018-08-12T09:14:40.220Z,0.93
2018-08-12T09:17:11.996Z,0.83
2018-08-12T09:19:43.934Z,0.80
2018-08-12T09:22:22.475Z,1.00
2018-08-12T09:25:01.282Z,0.70
2018-08-12T09:27:40.427Z,0.70
2018-08-12T09:30:24.429Z,0.73
2018-08-12T09:33:04.153Z,0.60
2018-08-12T09:35:39.970Z,0.50
2018-08-12T09:38:19.282Z,1.10
2018-08-12T09:40:58.409Z,0.80
2018-08-12T09:43:37.549Z,0.90
2018-08-12T09:46:10.305Z,0.80
2018-08-12T09:48:57.498Z,0.60
2018-08-12T09:51:31.873Z,0.50
2018-08-12T09:54:03.736Z,0.53
2018-08-12T09:56:35.446Z,0.70
2018-08-12T09:59:07.386Z,0.83
2018-08-12T10:01:39.228Z,0.80
2018-08-12T10:04:10.888Z,0.70
2018-08-12T10:06:42.726Z,0.63
2018-08-12T10:09:14.525Z,0.70
2018-08-12T10:11:46.276Z,0.63
2018-08-12T10:14:18.296Z,0.70
2018-08-12T10:16:50.006Z,0.70
2018-08-12T10:19:22.028Z,0.50
2018-08-12T10:21:53.898Z,0.73
2018-08-12T10:24:25.641Z,0.53
2018-08-12T10:26:57.638Z,0.50
2018-08-12T10:29:29.538Z,0.27
2018-08-12T10:32:01.410Z,0.50
2018-08-12T10:34:33.204Z,0.43
2018-08-12T10:37:05.189Z,1.20
2018-08-12T10:39:37.115Z,0.50
2018-08-12T10:42:08.981Z,0.50
2018-08-12T10:44:40.707Z,0.73
2018-08-12T10:47:12.669Z,0.70
2018-08-12T10:49:44.537Z,0.50
2018-08-12T10:52:16.321Z,0.50
2018-08-12T10:54:48.189Z,0.60
2018-08-12T10:57:20.357Z,0.90
2018-08-12T10:59:52.465Z,0.80
2018-08-12T11:02:24.560Z,0.77
2018-08-12T11:04:56.370Z,0.77
2018-08-12T11:07:28.360Z,0.90
2018-08-12T11:10:00.476Z,0.50
2018-08-12T11:12:32.383Z,0.80
2018-08-12T11:15:04.107Z,0.80
2018-08-12T11:17:35.917Z,0.70
2018-08-12T11:20:08.456Z,0.53
2018-08-12T11:22:40.365Z,0.70
2018-08-12T11:25:13.169Z,0.57
2018-08-12T11:27:45.074Z,0.60
2018-08-12T11:30:18.486Z,0.70
2018-08-12T11:32:50.205Z,0.73
2018-08-12T11:35:22.250Z,1.03
2018-08-12T11:37:54.157Z,0.70
2018-08-12T11:40:25.917Z,0.50
2018-08-12T11:42:57.710Z,0.40
2018-08-12T11:45:29.718Z,0.53
2018-08-12T11:48:01.366Z,0.50
2018-08-12T11:50:33.233Z,0.67
2018-08-12T11:53:05.285Z,0.70
2018-08-12T11:55:37.136Z,0.50
2018-08-12T11:58:08.889Z,0.60
2018-08-12T12:00:40.806Z,0.50
2018-08-12T12:03:12.537Z,0.50
2018-08-12T12:05:44.311Z,0.77
2018-08-12T12:08:16.128Z,0.60
2018-08-12T12:10:47.888Z,0.60
2018-08-12T12:13:19.674Z,0.60
2018-08-12T12:15:51.507Z,0.90
2018-08-12T12:18:23.184Z,0.60
2018-08-12T12:20:54.685Z,0.70
2018-08-12T12:23:26.409Z,0.40
2018-08-12T12:25:58.203Z,0.43
2018-08-12T12:28:30.012Z,0.50
2018-08-12T12:31:01.992Z,0.70
2018-08-12T12:33:34.154Z,0.80
2018-08-12T12:36:06.203Z,0.80
2018-08-12T12:38:38.095Z,0.60
2018-08-12T12:41:09.940Z,0.90
2018-08-12T12:43:41.892Z,0.60
2018-08-12T12:46:13.848Z,0.70
2018-08-12T12:48:45.860Z,0.70
2018-08-12T12:51:17.723Z,0.50
2018-08-12T12:53:49.388Z,0.60
2018-08-12T12:56:21.250Z,0.90
2018-08-12T12:58:53.086Z,0.60
2018-08-12T13:01:25.017Z,1.10
2018-08-12T13:03:56.512Z,0.70
2018-08-12T13:06:28.241Z,0.60
2018-08-12T13:09:00.245Z,1.20
2018-08-12T13:11:31.953Z,1.03
2018-08-12T13:14:03.870Z,0.70
2018-08-12T13:16:35.979Z,0.70
2018-08-12T13:19:08.021Z,0.77
2018-08-12T13:21:39.750Z,0.70
2018-08-12T13:24:11.602Z,0.60
2018-08-12T13:26:43.529Z,0.50
2018-08-12T13:29:15.540Z,0.40
2018-08-12T13:31:47.762Z,0.77
2018-08-12T13:34:19.550Z,0.70
2018-08-12T13:36:51.328Z,0.80
2018-08-12T13:39:23.243Z,0.60
2018-08-12T13:41:55.041Z,0.70
2018-08-12T13:44:26.884Z,0.53
2018-08-12T13:46:58.751Z,0.40
2018-08-12T13:49:30.387Z,0.43
2018-08-12T13:52:02.548Z,0.70
2018-08-12T13:54:34.521Z,0.60
2018-08-12T13:57:06.432Z,0.70
2018-08-12T13:59:38.177Z,0.50
2018-08-12T14:02:09.618Z,0.63
2018-08-12T14:04:41.189Z,0.53
2018-08-12T14:07:12.846Z,0.87
2018-08-12T14:09:44.865Z,0.70
2018-08-12T14:12:23.660Z,0.80
2018-08-12T14:14:55.585Z,0.60
2018-08-12T14:17:27.424Z,0.50
2018-08-12T14:20:00.230Z,0.40
2018-08-12T14:22:32.046Z,0.53
2018-08-12T14:25:03.967Z,0.60
2018-08-12T14:27:35.896Z,0.67
2018-08-12T14:30:11.828Z,0.60
2018-08-12T14:32:44.472Z,0.80
2018-08-12T14:35:16.306Z,0.90
2018-08-12T14:37:48.287Z,0.70
2018-08-12T14:40:20.144Z,0.70
2018-08-12T14:42:51.908Z,0.40
2018-08-12T14:45:23.665Z,0.50
2018-08-12T14:47:55.426Z,0.43
2018-08-12T14:50:27.173Z,0.40
2018-08-12T14:52:59.092Z,0.50
2018-08-12T14:55:30.898Z,0.60
2018-08-12T14:58:02.635Z,0.37
2018-08-12T15:00:34.527Z,0.70
2018-08-12T15:03:06.287Z,0.60
2018-08-12T15:05:37.845Z,0.40
2018-08-12T15:08:09.647Z,0.67
2018-08-12T15:10:41.539Z,0.60
2018-08-12T15:13:13.110Z,0.60
2018-08-12T15:15:44.826Z,0.83
2018-08-12T15:18:16.690Z,0.90
2018-08-12T15:20:48.462Z,0.73
2018-08-12T15:23:20.330Z,0.87
2018-08-12T15:25:52.126Z,0.60
2018-08-12T15:28:23.953Z,0.50
2018-08-12T15:30:55.839Z,0.70
2018-08-12T15:33:27.462Z,0.40
2018-08-12T15:35:59.320Z,0.50
2018-08-12T15:38:31.165Z,0.63
2018-08-12T15:41:02.951Z,0.70
2018-08-12T15:43:34.711Z,0.83
2018-08-12T15:46:06.482Z,0.73
2018-08-12T15:48:38.054Z,0.80
2018-08-12T15:51:09.839Z,0.90
2018-08-12T15:53:41.648Z,0.80
2018-08-12T15:56:13.477Z,0.47
2018-08-12T15:58:45.356Z,0.60
2018-08-12T16:01:17.124Z,0.60
2018-08-12T16:03:48.977Z,0.43
2018-08-12T16:06:20.873Z,0.50
2018-08-12T16:08:52.658Z,0.90
2018-08-12T16:11:24.641Z,0.70
2018-08-12T16:13:56.557Z,0.60
2018-08-12T16:16:28.461Z,0.30
2018-08-12T16:19:00.388Z,0.50
2018-08-12T16:21:32.297Z,0.40
2018-08-12T16:24:04.084Z,0.57
2018-08-12T16:26:35.841Z,0.60
2018-08-12T16:29:07.944Z,0.80
2018-08-12T16:31:39.662Z,0.60
2018-08-12T16:34:11.527Z,0.40
2018-08-12T16:36:43.160Z,0.33
2018-08-12T16:39:14.965Z,0.80
2018-08-12T16:41:46.618Z,0.80
2018-08-12T16:44:18.533Z,0.60
2018-08-12T16:46:50.424Z,0.40
2018-08-12T16:49:22.219Z,0.40
2018-08-12T16:51:54.229Z,0.40
2018-08-12T16:54:25.961Z,0.70
2018-08-12T16:56:57.870Z,0.70
2018-08-12T16:59:29.757Z,0.83
2018-08-12T17:02:01.492Z,0.30
2018-08-12T17:04:33.317Z,0.47
2018-08-12T17:07:05.119Z,0.50
2018-08-12T17:09:36.992Z,0.63
2018-08-12T17:12:08.780Z,0.33
2018-08-12T17:14:40.512Z,0.40
2018-08-12T17:17:12.149Z,0.80
2018-08-12T17:19:43.819Z,0.70
2018-08-12T17:22:15.584Z,0.43
2018-08-12T17:24:47.334Z,0.60
2018-08-12T17:27:19.162Z,0.90
2018-08-12T17:29:51.046Z,0.60
2018-08-12T17:32:22.926Z,0.90
2018-08-12T17:34:54.649Z,0.43
2018-08-12T17:37:26.449Z,0.40
2018-08-12T17:39:58.411Z,0.50
2018-08-12T17:42:30.424Z,0.40
2018-08-12T17:45:02.218Z,0.20
2018-08-12T17:47:33.863Z,0.30
2018-08-12T17:50:06.005Z,0.40
2018-08-12T17:52:37.874Z,0.40
2018-08-12T17:55:09.928Z,0.60
2018-08-12T17:57:41.729Z,0.60
2018-08-12T18:00:16.057Z,0.50
2018-08-12T18:02:47.802Z,0.60
2018-08-12T18:05:19.733Z,0.50
2018-08-12T18:07:51.378Z,0.60
2018-08-12T18:10:23.159Z,0.60
2018-08-12T18:12:54.993Z,0.60
2018-08-12T18:15:26.794Z,0.50
2018-08-12T18:17:58.636Z,0.40
2018-08-12T18:20:30.448Z,0.43
2018-08-12T18:23:02.272Z,0.70
2018-08-12T18:25:34.217Z,0.50
2018-08-12T18:28:06.181Z,0.70
2018-08-12T18:30:37.793Z,1.30
2018-08-12T18:33:09.631Z,0.70
2018-08-12T18:35:41.226Z,0.80
2018-08-12T18:38:13.147Z,1.00
2018-08-12T18:40:44.703Z,0.70
2018-08-12T18:43:16.826Z,0.73
2018-08-12T18:45:48.621Z,0.80
2018-08-12T18:48:20.582Z,0.90
2018-08-12T18:50:52.257Z,1.00
2018-08-12T18:53:24.078Z,0.60
2018-08-12T18:55:56.031Z,0.70
2018-08-12T18:58:27.951Z,0.60
2018-08-12T19:00:59.684Z,0.80
2018-08-12T19:03:31.672Z,0.70
2018-08-12T19:06:03.411Z,0.77
2018-08-12T19:08:35.281Z,0.83
2018-08-12T19:11:09.343Z,1.00
2018-08-12T19:13:48.579Z,0.80
2018-08-12T19:16:41.707Z,0.80
2018-08-12T19:19:14.362Z,0.70
2018-08-12T19:21:45.821Z,0.70
2018-08-12T19:24:20.512Z,0.80
2018-08-12T19:26:57.473Z,0.93
2018-08-12T19:29:31.406Z,0.60
2018-08-12T19:32:04.354Z,1.07
2018-08-12T19:34:36.174Z,0.73
2018-08-12T19:37:08.117Z,0.80
2018-08-12T19:39:39.978Z,0.70
2018-08-12T19:42:11.854Z,0.73
2018-08-12T19:44:43.951Z,1.20
2018-08-12T19:47:15.702Z,1.20
2018-08-12T19:49:47.625Z,0.87
2018-08-12T19:52:19.412Z,0.70
2018-08-12T19:54:51.349Z,0.80
2018-08-12T19:57:23.069Z,0.80
2018-08-12T19:59:54.961Z,0.80
2018-08-12T20:02:26.981Z,0.90
2018-08-12T20:04:58.690Z,1.10
2018-08-12T20:07:30.377Z,0.93
2018-08-12T20:10:02.046Z,1.00
2018-08-12T20:12:34.036Z,1.10
2018-08-12T20:15:07.880Z,1.43
2018-08-12T20:17:41.507Z,1.07
2018-08-12T20:20:14.211Z,1.23
2018-08-12T20:22:46.582Z,1.10
2018-08-12T20:25:19.272Z,0.93
2018-08-12T20:27:51.919Z,1.23
2018-08-12T20:30:23.909Z,1.20
2018-08-12T20:32:55.663Z,1.23
2018-08-12T20:35:27.438Z,1.10
2018-08-12T20:37:59.154Z,1.27
2018-08-12T20:40:31.029Z,1.10
2018-08-12T20:43:02.983Z,1.07
2018-08-12T20:45:34.868Z,0.90
2018-08-12T20:48:06.816Z,1.20
2018-08-12T20:50:38.715Z,1.20
2018-08-12T20:53:10.550Z,1.30
2018-08-12T20:55:42.325Z,1.20
2018-08-12T20:58:14.277Z,1.00
2018-08-12T21:00:46.094Z,1.10
2018-08-12T21:03:17.999Z,0.93
2018-08-12T21:05:49.764Z,1.20
2018-08-12T21:08:21.605Z,1.17
2018-08-12T21:10:53.553Z,1.13
2018-08-12T21:13:25.377Z,1.20
2018-08-12T21:15:57.409Z,1.20
2018-08-12T21:18:29.269Z,1.20
2018-08-12T21:21:01.109Z,1.23
2018-08-12T21:23:32.993Z,1.10
2018-08-12T21:26:04.802Z,1.40
2018-08-12T21:28:36.591Z,1.13
2018-08-12T21:31:08.333Z,1.30
2018-08-12T21:33:40.103Z,0.93
2018-08-12T21:36:12.045Z,1.00
2018-08-12T21:38:43.836Z,0.90
2018-08-12T21:41:15.581Z,0.90
2018-08-12T21:43:47.526Z,1.20
2018-08-12T21:46:19.498Z,1.37
2018-08-12T21:48:51.309Z,1.67
2018-08-12T21:51:23.240Z,1.50
2018-08-12T21:53:55.006Z,1.63
2018-08-12T21:56:26.652Z,1.30
2018-08-12T21:58:58.410Z,1.20
2018-08-12T22:01:30.364Z,1.37
2018-08-12T22:04:02.135Z,1.40
2018-08-12T22:06:33.901Z,1.30
2018-08-12T22:09:07.912Z,1.00
2018-08-12T22:11:39.691Z,1.30
2018-08-12T22:14:11.651Z,1.20
2018-08-12T22:16:43.389Z,1.60
2018-08-12T22:19:15.249Z,1.57
2018-08-12T22:21:47.086Z,1.20
2018-08-12T22:24:19.098Z,2.00
2018-08-12T22:26:50.928Z,1.33
2018-08-12T22:29:22.698Z,1.60
2018-08-12T22:31:54.523Z,1.47
2018-08-12T22:34:26.308Z,1.60
2018-08-12T22:36:58.148Z,1.50
2018-08-12T22:39:29.838Z,1.60
2018-08-12T22:42:01.785Z,1.40
2018-08-12T22:44:33.576Z,1.50
2018-08-12T22:47:05.484Z,1.30
2018-08-12T22:49:37.301Z,1.30
2018-08-12T22:52:09.233Z,1.60
2018-08-12T22:54:41.173Z,1.30
2018-08-12T22:57:12.989Z,1.50
2018-08-12T22:59:44.802Z,1.43
2018-08-12T23:02:16.489Z,1.50
2018-08-12T23:04:48.371Z,1.60
2018-08-12T23:07:20.125Z,1.30
2018-08-12T23:09:51.956Z,1.77
2018-08-12T23:12:23.712Z,1.20
2018-08-12T23:15:02.058Z,1.40
2018-08-12T23:17:35.020Z,1.50
2018-08-12T23:20:06.910Z,1.50
2018-08-12T23:22:38.627Z,1.50
2018-08-12T23:25:10.476Z,1.33
2018-08-12T23:27:42.333Z,1.37
2018-08-12T23:30:14.198Z,1.60
2018-08-12T23:32:46.087Z,1.20
2018-08-12T23:35:17.973Z,1.20
2018-08-12T23:37:49.518Z,1.50
2018-08-12T23:40:21.442Z,1.37
2018-08-12T23:42:53.224Z,1.20
2018-08-12T23:45:24.981Z,1.37
2018-08-12T23:47:56.720Z,1.40
2018-08-12T23:50:28.534Z,1.20
2018-08-12T23:53:00.537Z,1.37
2018-08-12T23:55:32.616Z,1.50
2018-08-12T23:58:04.574Z,1.30
